Time;durP1;ratioP1;P1;durP2;ratioP2;P2;SDS_P1;SDS_P2;PMS_P1;PMS_P2;Temp;Humidity;BMP_temperature;BMP_pressure;BME280_temperature;BME280_humidity;BME280_pressure;Samples;Min_cycle;Max_cycle;Signal;HPM_P1;HPM_P2
2022/11/27 00:01:47;;;;;;;14.33;5.43;;;;;;;;;;4974422;28;20208;-80
2022/11/27 00:04:12;;;;;;;9.60;4.63;;;;;;;;;;4980648;28;20184;-80
2022/11/27 00:06:38;;;;;;;16.23;5.30;;;;;;;;;;4986957;28;20181;-80
2022/11/27 00:09:05;;;;;;;11.40;4.73;;;;;;;;;;4986190;28;20782;-80
2022/11/27 00:11:31;;;;;;;16.37;4.50;;;;;;;;;;4981353;28;20212;-80
2022/11/27 00:13:57;;;;;;;13.93;4.67;;;;;;;;;;4976680;28;21148;-80
2022/11/27 00:16:23;;;;;;;13.57;4.33;;;;;;;;;;4976973;28;20218;-80
2022/11/27 00:18:48;;;;;;;10.23;4.70;;;;;;;;;;4978863;28;20224;-80
2022/11/27 00:21:15;;;;;;;10.67;4.37;;;;;;;;;;4956485;28;20211;-79
2022/11/27 00:23:41;;;;;;;9.13;4.07;;;;;;;;;;4987860;28;20172;-79
2022/11/27 00:26:07;;;;;;;10.33;4.33;;;;;;;;;;4978018;28;20612;-80
2022/11/27 00:28:33;;;;;;;9.47;4.13;;;;;;;;;;4985715;28;20181;-79
2022/11/27 00:30:59;;;;;;;12.43;4.90;;;;;;;;;;4969232;28;20279;-80
2022/11/27 00:33:24;;;;;;;10.60;4.20;;;;;;;;;;4978902;28;20185;-79
2022/11/27 00:35:49;;;;;;;10.80;3.93;;;;;;;;;;4984908;28;20194;-79
2022/11/27 00:38:14;;;;;;;10.47;4.50;;;;;;;;;;4986648;28;20292;-79
2022/11/27 00:40:39;;;;;;;13.40;5.13;;;;;;;;;;4986976;28;20192;-79
2022/11/27 00:43:05;;;;;;;10.97;4.30;;;;;;;;;;4966935;28;20288;-79
2022/11/27 00:45:30;;;;;;;12.87;3.53;;;;;;;;;;4965982;28;20203;-79
2022/11/27 00:47:55;;;;;;;13.60;5.17;;;;;;;;;;4989267;28;20210;-80
2022/11/27 00:50:20;;;;;;;11.03;4.17;;;;;;;;;;4970994;28;20614;-79
2022/11/27 00:52:46;;;;;;;13.97;4.30;;;;;;;;;;4963237;28;20252;-79
2022/11/27 00:55:11;;;;;;;9.33;4.50;;;;;;;;;;4963781;28;20587;-79
2022/11/27 00:57:36;;;;;;;12.87;4.83;;;;;;;;;;4982741;28;20195;-79
2022/11/27 01:00:02;;;;;;;8.40;5.10;;;;;;;;;;4988826;28;20184;-79
2022/11/27 01:02:28;;;;;;;12.57;4.50;;;;;;;;;;4979934;28;20274;-79
2022/11/27 01:04:53;;;;;;;8.90;3.87;;;;;;;;;;4979464;28;20176;-79
2022/11/27 01:07:18;;;;;;;10.93;4.67;;;;;;;;;;4963255;28;20641;-79
2022/11/27 01:09:43;;;;;;;7.13;3.87;;;;;;;;;;4986009;28;20202;-79
2022/11/27 01:12:08;;;;;;;13.43;4.00;;;;;;;;;;4981386;28;20361;-79
2022/11/27 01:14:34;;;;;;;10.63;4.50;;;;;;;;;;4961555;28;20204;-80
2022/11/27 01:16:59;;;;;;;10.00;3.90;;;;;;;;;;4966406;28;20191;-79
2022/11/27 01:19:24;;;;;;;9.67;4.10;;;;;;;;;;4979290;28;20239;-79
2022/11/27 01:21:50;;;;;;;9.13;4.07;;;;;;;;;;4975465;28;20709;-79
2022/11/27 01:24:15;;;;;;;10.43;4.10;;;;;;;;;;4974568;28;20186;-79
2022/11/27 01:26:41;;;;;;;9.50;3.63;;;;;;;;;;4974989;28;20172;-79
2022/11/27 01:29:06;;;;;;;9.57;3.57;;;;;;;;;;4979989;28;20192;-79
2022/11/27 01:31:32;;;;;;;8.07;3.40;;;;;;;;;;4983065;28;20262;-78
2022/11/27 01:34:06;;;;;;;8.90;3.67;;;;;;;;;;4993608;28;20187;-79
2022/11/27 01:36:32;;;;;;;9.53;3.50;;;;;;;;;;4982472;28;20618;-79
2022/11/27 01:38:58;;;;;;;8.57;3.80;;;;;;;;;;4968042;28;20208;-79
2022/11/27 01:41:28;;;;;;;9.87;3.90;;;;;;;;;;4992150;28;20704;-79
2022/11/27 01:43:53;;;;;;;26.30;6.73;;;;;;;;;;4977193;28;20172;-79
2022/11/27 01:46:38;;;;;;;14.17;3.20;;;;;;;;;;4984584;28;20687;-78
2022/11/27 01:49:09;;;;;;;11.43;3.43;;;;;;;;;;4985052;28;20206;-78
2022/11/27 01:51:53;;;;;;;12.93;3.87;;;;;;;;;;4986105;28;20192;-78
2022/11/27 01:54:20;;;;;;;7.43;3.83;;;;;;;;;;4984406;28;20196;-79
2022/11/27 01:56:47;;;;;;;9.13;3.50;;;;;;;;;;4967600;28;20181;-79
2022/11/27 01:59:13;;;;;;;9.20;5.13;;;;;;;;;;4985193;28;20190;-79
2022/11/27 02:01:38;;;;;;;9.10;3.97;;;;;;;;;;4970161;28;20637;-78
2022/11/27 02:04:03;;;;;;;6.43;3.67;;;;;;;;;;4985162;28;20184;-78
2022/11/27 02:06:29;;;;;;;8.83;3.30;;;;;;;;;;4987272;28;20235;-78
2022/11/27 02:08:54;;;;;;;10.33;4.23;;;;;;;;;;4989737;28;20210;-78
2022/11/27 02:11:20;;;;;;;7.13;3.80;;;;;;;;;;4975029;28;20196;-79
2022/11/27 02:13:45;;;;;;;8.63;4.77;;;;;;;;;;4983058;28;20172;-79
2022/11/27 02:16:16;;;;;;;8.97;3.23;;;;;;;;;;4978850;28;21478;-79
2022/11/27 02:18:41;;;;;;;7.07;3.60;;;;;;;;;;4980380;28;20188;-79
2022/11/27 02:21:15;;;;;;;10.23;3.60;;;;;;;;;;4965225;28;20208;-79
2022/11/27 02:23:59;;;;;;;6.53;3.10;;;;;;;;;;4968480;28;20212;-78
2022/11/27 02:26:24;;;;;;;9.90;4.33;;;;;;;;;;4991626;28;20657;-79
2022/11/27 02:29:01;;;;;;;8.03;3.87;;;;;;;;;;4985744;28;20176;-79
2022/11/27 02:31:41;;;;;;;8.57;3.17;;;;;;;;;;4969432;28;20220;-80
2022/11/27 02:34:13;;;;;;;9.83;3.67;;;;;;;;;;4978337;28;20183;-78
2022/11/27 02:36:39;;;;;;;6.70;3.13;;;;;;;;;;4966841;28;20192;-79
2022/11/27 02:39:08;;;;;;;8.80;3.80;;;;;;;;;;4966275;28;20181;-78
2022/11/27 02:41:39;;;;;;;7.07;3.47;;;;;;;;;;4987683;28;20207;-78
2022/11/27 02:44:05;;;;;;;8.47;3.20;;;;;;;;;;4969558;28;20184;-79
2022/11/27 02:46:30;;;;;;;11.30;3.47;;;;;;;;;;4977854;28;20180;-79
2022/11/27 02:48:57;;;;;;;13.23;4.27;;;;;;;;;;4978315;28;20184;-79
2022/11/27 02:51:25;;;;;;;6.77;3.07;;;;;;;;;;4963695;28;20207;-79
2022/11/27 02:53:52;;;;;;;4.73;2.70;;;;;;;;;;4988518;28;20257;-78
2022/11/27 02:56:20;;;;;;;8.57;3.10;;;;;;;;;;4989964;28;20176;-78
2022/11/27 02:58:46;;;;;;;6.03;3.07;;;;;;;;;;4972445;28;20264;-78
2022/11/27 03:01:13;;;;;;;6.97;3.10;;;;;;;;;;4986521;28;20200;-79
2022/11/27 03:03:41;;;;;;;14.30;3.33;;;;;;;;;;4970830;28;20606;-78
2022/11/27 03:06:19;;;;;;;6.53;2.83;;;;;;;;;;4983263;28;20168;-79
2022/11/27 03:08:44;;;;;;;7.43;3.17;;;;;;;;;;4955893;28;20203;-79
2022/11/27 03:11:10;;;;;;;5.43;2.80;;;;;;;;;;4990863;28;20658;-79
2022/11/27 03:13:37;;;;;;;6.20;3.20;;;;;;;;;;4991346;28;20217;-79
2022/11/27 03:16:19;;;;;;;9.93;3.03;;;;;;;;;;4982872;28;20252;-79
2022/11/27 03:18:55;;;;;;;9.20;2.97;;;;;;;;;;4979470;28;20235;-79
2022/11/27 03:21:29;;;;;;;7.07;2.60;;;;;;;;;;4972833;28;20708;-78
2022/11/27 03:23:55;;;;;;;8.40;3.07;;;;;;;;;;4995110;28;20176;-79
2022/11/27 03:26:20;;;;;;;7.40;3.33;;;;;;;;;;4964749;28;20187;-79
2022/11/27 03:28:46;;;;;;;8.83;2.60;;;;;;;;;;4983202;28;20718;-79
2022/11/27 03:31:12;;;;;;;7.80;3.10;;;;;;;;;;4991298;28;20561;-79
2022/11/27 03:33:37;;;;;;;8.10;3.03;;;;;;;;;;4955691;28;20196;-79
2022/11/27 03:36:09;;;;;;;6.63;2.70;;;;;;;;;;4959875;28;20273;-79
2022/11/27 03:38:34;;;;;;;9.20;3.30;;;;;;;;;;4964280;28;20568;-79
2022/11/27 03:41:05;;;;;;;7.73;2.53;;;;;;;;;;4989166;28;20195;-79
2022/11/27 03:43:33;;;;;;;6.57;3.30;;;;;;;;;;4965457;28;20215;-80
2022/11/27 03:45:59;;;;;;;8.50;3.03;;;;;;;;;;4969718;28;20190;-78
2022/11/27 03:48:31;;;;;;;7.23;2.83;;;;;;;;;;4967317;28;20187;-78
2022/11/27 03:51:15;;;;;;;9.00;2.77;;;;;;;;;;4976606;28;20214;-81
2022/11/27 03:53:50;;;;;;;3.30;2.17;;;;;;;;;;4992147;28;20175;-78
2022/11/27 03:56:21;;;;;;;11.43;3.20;;;;;;;;;;4969230;28;20199;-80
2022/11/27 03:58:47;;;;;;;9.83;3.43;;;;;;;;;;4974077;28;20240;-78
2022/11/27 04:01:15;;;;;;;6.97;2.77;;;;;;;;;;4969949;28;20199;-78
2022/11/27 04:03:40;;;;;;;10.50;3.60;;;;;;;;;;4994498;28;20214;-78
2022/11/27 04:06:06;;;;;;;9.33;3.17;;;;;;;;;;4993065;28;20182;-78
2022/11/27 04:08:31;;;;;;;9.67;2.87;;;;;;;;;;4971367;28;20557;-80
2022/11/27 04:10:56;;;;;;;5.70;3.27;;;;;;;;;;4965566;28;20207;-78
2022/11/27 04:13:21;;;;;;;8.27;3.20;;;;;;;;;;4982729;28;20195;-80
2022/11/27 04:15:46;;;;;;;6.20;3.00;;;;;;;;;;4969783;28;20183;-80
2022/11/27 04:18:12;;;;;;;8.53;3.10;;;;;;;;;;4977134;28;20194;-80
2022/11/27 04:20:37;;;;;;;6.60;3.10;;;;;;;;;;4966226;28;20204;-78
2022/11/27 04:23:02;;;;;;;4.20;3.20;;;;;;;;;;4982812;28;20207;-81
2022/11/27 04:25:27;;;;;;;6.63;3.20;;;;;;;;;;4966074;28;20168;-80
2022/11/27 04:27:53;;;;;;;5.67;3.20;;;;;;;;;;4964669;28;20197;-78
2022/11/27 04:30:18;;;;;;;7.17;3.40;;;;;;;;;;4964294;28;20193;-79
2022/11/27 04:32:43;;;;;;;10.77;3.10;;;;;;;;;;4986946;28;20218;-78
2022/11/27 04:35:08;;;;;;;8.30;3.73;;;;;;;;;;4965225;28;20260;-78
2022/11/27 04:37:34;;;;;;;5.63;3.10;;;;;;;;;;4982600;28;20180;-78
2022/11/27 04:39:59;;;;;;;5.93;3.33;;;;;;;;;;4965447;28;20217;-78
2022/11/27 04:42:25;;;;;;;9.77;3.33;;;;;;;;;;4988162;28;20266;-79
2022/11/27 04:44:50;;;;;;;6.70;3.07;;;;;;;;;;4961622;28;20547;-78
2022/11/27 04:47:15;;;;;;;7.83;3.27;;;;;;;;;;4960934;28;20558;-78
2022/11/27 04:49:41;;;;;;;7.07;3.37;;;;;;;;;;4988549;28;20202;-78
2022/11/27 04:52:06;;;;;;;8.67;4.10;;;;;;;;;;4990490;28;20562;-78
2022/11/27 04:54:31;;;;;;;10.57;3.53;;;;;;;;;;4978814;28;20230;-78
2022/11/27 04:56:56;;;;;;;7.40;4.10;;;;;;;;;;4963986;28;20211;-78
2022/11/27 04:59:22;;;;;;;9.87;4.10;;;;;;;;;;4988710;28;20434;-78
2022/11/27 05:01:47;;;;;;;15.77;4.40;;;;;;;;;;4966352;28;20196;-78
2022/11/27 05:04:12;;;;;;;11.10;4.83;;;;;;;;;;4977694;28;20172;-78
2022/11/27 05:06:37;;;;;;;8.93;4.07;;;;;;;;;;4985838;28;20180;-78
2022/11/27 05:09:02;;;;;;;9.03;4.13;;;;;;;;;;4989391;28;20192;-78
2022/11/27 05:11:28;;;;;;;8.87;4.47;;;;;;;;;;4978569;28;21544;-78
2022/11/27 05:14:13;;;;;;;6.87;4.07;;;;;;;;;;4989095;28;20185;-80
2022/11/27 05:16:40;;;;;;;9.60;3.90;;;;;;;;;;4967065;28;20176;-80
2022/11/27 05:19:05;;;;;;;7.40;3.73;;;;;;;;;;4981276;28;20184;-78
2022/11/27 05:21:30;;;;;;;7.17;4.17;;;;;;;;;;4983294;28;20547;-78
2022/11/27 05:23:55;;;;;;;10.57;4.03;;;;;;;;;;4980892;28;20539;-79
2022/11/27 05:26:20;;;;;;;9.33;3.60;;;;;;;;;;4984133;28;20207;-79
2022/11/27 05:28:46;;;;;;;8.30;4.13;;;;;;;;;;4987461;28;20203;-79
2022/11/27 05:31:11;;;;;;;11.70;4.10;;;;;;;;;;4996686;28;20214;-80
2022/11/27 05:33:36;;;;;;;9.60;3.60;;;;;;;;;;4971683;28;20250;-79
2022/11/27 05:36:01;;;;;;;8.03;4.33;;;;;;;;;;4984572;28;20180;-80
2022/11/27 05:38:26;;;;;;;8.63;3.73;;;;;;;;;;4989397;28;20655;-79
2022/11/27 05:40:51;;;;;;;8.70;3.37;;;;;;;;;;4994431;28;20199;-79
2022/11/27 05:43:17;;;;;;;5.57;2.90;;;;;;;;;;4992524;28;20303;-79
2022/11/27 05:45:42;;;;;;;5.87;3.37;;;;;;;;;;4972028;28;20183;-79
2022/11/27 05:48:07;;;;;;;5.90;3.60;;;;;;;;;;4984475;28;20663;-79
2022/11/27 05:50:32;;;;;;;9.20;2.83;;;;;;;;;;4987728;28;20181;-79
2022/11/27 05:52:57;;;;;;;8.83;3.17;;;;;;;;;;4991391;28;20184;-81
2022/11/27 05:55:23;;;;;;;5.73;3.10;;;;;;;;;;4982891;28;20202;-80
2022/11/27 05:57:48;;;;;;;6.97;2.30;;;;;;;;;;4986094;28;20184;-81
2022/11/27 06:00:13;;;;;;;4.10;2.60;;;;;;;;;;4989050;28;20582;-80
2022/11/27 06:02:38;;;;;;;6.17;2.93;;;;;;;;;;4959923;28;20216;-81
2022/11/27 06:05:04;;;;;;;5.17;2.30;;;;;;;;;;4977789;28;20563;-81
2022/11/27 06:07:30;;;;;;;5.10;2.53;;;;;;;;;;4986655;28;20207;-80
2022/11/27 06:09:55;;;;;;;3.13;2.03;;;;;;;;;;4980724;28;20449;-80
2022/11/27 06:12:20;;;;;;;5.37;2.53;;;;;;;;;;4979891;28;20215;-80
2022/11/27 06:14:45;;;;;;;8.47;3.67;;;;;;;;;;4959556;28;20176;-80
2022/11/27 06:17:10;;;;;;;5.90;3.07;;;;;;;;;;4989438;28;20206;-81
2022/11/27 06:19:36;;;;;;;6.30;3.03;;;;;;;;;;4982440;28;20180;-81
2022/11/27 06:22:01;;;;;;;5.43;2.70;;;;;;;;;;4982905;28;20283;-80
2022/11/27 06:24:26;;;;;;;5.27;2.87;;;;;;;;;;4986181;28;20248;-81
2022/11/27 06:26:51;;;;;;;4.33;2.27;;;;;;;;;;4988103;28;20646;-81
2022/11/27 06:29:17;;;;;;;6.37;2.67;;;;;;;;;;4964073;28;20180;-82
2022/11/27 06:31:42;;;;;;;6.03;2.27;;;;;;;;;;4984573;28;20239;-81
2022/11/27 06:34:07;;;;;;;4.47;2.33;;;;;;;;;;4980194;28;20184;-82
2022/11/27 06:36:36;;;;;;;4.57;2.50;;;;;;;;;;4984850;28;20793;-81
2022/11/27 06:39:03;;;;;;;6.77;3.10;;;;;;;;;;4992214;28;20631;-81
2022/11/27 06:41:28;;;;;;;6.60;2.77;;;;;;;;;;4980354;28;20204;-82
2022/11/27 06:43:54;;;;;;;4.47;2.30;;;;;;;;;;4986520;28;20233;-81
2022/11/27 06:46:20;;;;;;;4.63;2.57;;;;;;;;;;4991635;28;20172;-81
2022/11/27 06:48:46;;;;;;;6.73;3.23;;;;;;;;;;4994328;28;20176;-81
2022/11/27 06:51:14;;;;;;;7.73;2.77;;;;;;;;;;4980145;28;20215;-82
2022/11/27 06:53:39;;;;;;;5.43;2.73;;;;;;;;;;4965297;28;20250;-82
2022/11/27 06:56:05;;;;;;;5.40;3.40;;;;;;;;;;4990951;28;20220;-82
2022/11/27 06:58:31;;;;;;;7.07;3.07;;;;;;;;;;4983517;28;20203;-82
2022/11/27 07:01:00;;;;;;;7.97;2.93;;;;;;;;;;4975378;28;20300;-82
2022/11/27 07:03:25;;;;;;;5.27;2.30;;;;;;;;;;4971378;28;20789;-82
2022/11/27 07:05:50;;;;;;;7.90;2.40;;;;;;;;;;4978135;28;20443;-82
2022/11/27 07:08:16;;;;;;;6.97;2.70;;;;;;;;;;4991697;28;20206;-82
2022/11/27 07:10:41;;;;;;;7.77;3.07;;;;;;;;;;4996106;28;20639;-83
2022/11/27 07:13:06;;;;;;;7.93;3.03;;;;;;;;;;4974403;28;20248;-82
2022/11/27 07:15:31;;;;;;;8.93;3.90;;;;;;;;;;4991330;28;20175;-82
2022/11/27 07:17:57;;;;;;;5.10;2.73;;;;;;;;;;4990903;28;20182;-82
2022/11/27 07:20:22;;;;;;;10.33;4.10;;;;;;;;;;4968631;28;20271;-82
2022/11/27 07:22:47;;;;;;;5.40;3.10;;;;;;;;;;4973260;28;20703;-82
2022/11/27 07:25:12;;;;;;;9.90;3.67;;;;;;;;;;4992809;28;20206;-82
2022/11/27 07:27:37;;;;;;;8.13;3.53;;;;;;;;;;4983103;28;20167;-82
2022/11/27 07:30:03;;;;;;;7.00;3.87;;;;;;;;;;4986979;28;20181;-82
2022/11/27 07:32:28;;;;;;;5.23;2.97;;;;;;;;;;4990861;28;20212;-83
2022/11/27 07:34:53;;;;;;;5.97;3.47;;;;;;;;;;4987371;28;20239;-82
2022/11/27 07:37:18;;;;;;;7.53;3.20;;;;;;;;;;4965777;28;20274;-82
2022/11/27 07:39:44;;;;;;;9.80;3.07;;;;;;;;;;4984271;28;20184;-82
2022/11/27 07:42:09;;;;;;;9.40;3.50;;;;;;;;;;4981174;28;20623;-81
2022/11/27 07:44:34;;;;;;;7.70;3.30;;;;;;;;;;4964649;28;20192;-84
2022/11/27 07:46:59;;;;;;;7.10;3.33;;;;;;;;;;4980265;28;20200;-82
2022/11/27 07:49:24;;;;;;;6.90;3.10;;;;;;;;;;4971704;28;20604;-81
2022/11/27 07:51:49;;;;;;;5.63;3.07;;;;;;;;;;4963296;28;20715;-81
2022/11/27 07:54:15;;;;;;;8.40;3.83;;;;;;;;;;4990637;28;20176;-81
2022/11/27 07:56:40;;;;;;;8.13;4.20;;;;;;;;;;4970033;28;20180;-81
2022/11/27 07:59:05;;;;;;;7.17;3.37;;;;;;;;;;4981276;28;20188;-82
2022/11/27 08:01:30;;;;;;;6.00;3.80;;;;;;;;;;4972909;28;20231;-81
2022/11/27 08:03:55;;;;;;;6.67;3.20;;;;;;;;;;4989301;28;20195;-81
2022/11/27 08:06:21;;;;;;;6.83;3.87;;;;;;;;;;4970359;28;20203;-81
2022/11/27 08:08:47;;;;;;;8.53;3.90;;;;;;;;;;4985829;28;20173;-81
2022/11/27 08:11:23;;;;;;;7.83;3.77;;;;;;;;;;4979599;28;20188;-81
2022/11/27 08:13:49;;;;;;;7.53;3.50;;;;;;;;;;4989178;28;20204;-81
2022/11/27 08:16:14;;;;;;;9.73;3.60;;;;;;;;;;4983206;28;20199;-81
2022/11/27 08:18:39;;;;;;;7.80;3.90;;;;;;;;;;4981820;28;20234;-81
2022/11/27 08:21:05;;;;;;;6.90;3.80;;;;;;;;;;4994185;28;20204;-82
2022/11/27 08:23:30;;;;;;;6.13;3.67;;;;;;;;;;4996719;28;20199;-82
2022/11/27 08:25:55;;;;;;;7.70;3.87;;;;;;;;;;4990214;28;20259;-81
2022/11/27 08:28:20;;;;;;;8.47;3.90;;;;;;;;;;4994256;28;20184;-81
2022/11/27 08:30:53;;;;;;;7.07;3.70;;;;;;;;;;4971705;28;20682;-82
2022/11/27 08:33:19;;;;;;;9.30;4.77;;;;;;;;;;4989753;28;20188;-81
2022/11/27 08:35:47;;;;;;;11.17;4.40;;;;;;;;;;4996757;28;20176;-82
2022/11/27 08:38:13;;;;;;;7.00;3.90;;;;;;;;;;4997527;28;20186;-81
2022/11/27 08:40:38;;;;;;;7.17;4.03;;;;;;;;;;4982316;28;20578;-82
2022/11/27 08:43:03;;;;;;;5.23;3.57;;;;;;;;;;4987591;28;20200;-81
2022/11/27 08:45:28;;;;;;;10.03;4.17;;;;;;;;;;4976625;28;20192;-82
2022/11/27 08:47:54;;;;;;;11.87;4.67;;;;;;;;;;4972097;28;20180;-82
2022/11/27 08:50:19;;;;;;;8.27;4.83;;;;;;;;;;4979257;28;20180;-82
2022/11/27 08:52:44;;;;;;;8.53;4.30;;;;;;;;;;4999082;28;20202;-82
2022/11/27 08:55:09;;;;;;;9.30;4.50;;;;;;;;;;4985866;28;20251;-83
2022/11/27 08:57:35;;;;;;;10.27;6.10;;;;;;;;;;4976191;28;20567;-82
2022/11/27 09:00:00;;;;;;;10.70;4.20;;;;;;;;;;4979107;28;20532;-82
2022/11/27 09:02:25;;;;;;;7.53;4.27;;;;;;;;;;4979054;28;20217;-82
2022/11/27 09:04:50;;;;;;;7.83;4.30;;;;;;;;;;4992565;28;20280;-82
2022/11/27 09:07:16;;;;;;;8.07;4.57;;;;;;;;;;4988504;28;20214;-82
2022/11/27 09:09:41;;;;;;;7.07;4.20;;;;;;;;;;4986711;28;20168;-83
2022/11/27 09:12:06;;;;;;;9.73;4.10;;;;;;;;;;4971141;28;20208;-83
2022/11/27 09:14:31;;;;;;;8.83;4.50;;;;;;;;;;4966156;28;20185;-82
2022/11/27 09:16:57;;;;;;;5.53;4.03;;;;;;;;;;4969794;28;20203;-83
2022/11/27 09:19:22;;;;;;;12.50;4.70;;;;;;;;;;4986675;28;20215;-83
2022/11/27 09:21:48;;;;;;;7.60;4.13;;;;;;;;;;4989158;28;20223;-82
2022/11/27 09:24:13;;;;;;;9.70;4.47;;;;;;;;;;4969810;28;20564;-83
2022/11/27 09:26:38;;;;;;;8.73;3.63;;;;;;;;;;4978849;28;20207;-82
2022/11/27 09:29:03;;;;;;;11.03;4.13;;;;;;;;;;4988161;28;20275;-82
2022/11/27 09:31:29;;;;;;;9.10;4.60;;;;;;;;;;5002719;22;20235;-72
2022/11/27 09:33:54;;;;;;;6.53;3.97;;;;;;;;;;5001108;28;20182;-72
2022/11/27 09:36:21;;;;;;;8.57;4.27;;;;;;;;;;4998559;28;20172;-72
2022/11/27 09:38:46;;;;;;;9.30;3.93;;;;;;;;;;5006484;28;20267;-72
2022/11/27 09:41:18;;;;;;;5.53;3.50;;;;;;;;;;4999287;28;20665;-72
2022/11/27 09:43:46;;;;;;;8.13;3.83;;;;;;;;;;4980677;28;20210;-72
2022/11/27 09:46:16;;;;;;;8.50;4.23;;;;;;;;;;4984758;28;20216;-72
2022/11/27 09:48:44;;;;;;;4.93;3.53;;;;;;;;;;4945976;28;20188;-72
2022/11/27 09:51:12;;;;;;;10.60;4.77;;;;;;;;;;4966140;28;20301;-72
2022/11/27 09:53:55;;;;;;;10.47;5.13;;;;;;;;;;4981624;28;20184;-72
2022/11/27 09:56:20;;;;;;;9.67;3.70;;;;;;;;;;4975595;28;20196;-72
2022/11/27 09:58:48;;;;;;;7.03;3.63;;;;;;;;;;4987291;28;20188;-72
2022/11/27 10:01:14;;;;;;;8.23;4.23;;;;;;;;;;4983480;28;20204;-72
2022/11/27 10:03:41;;;;;;;8.73;4.43;;;;;;;;;;4986270;28;20646;-71
2022/11/27 10:06:06;;;;;;;8.53;4.10;;;;;;;;;;4966116;28;20207;-72
2022/11/27 10:08:34;;;;;;;9.40;4.77;;;;;;;;;;4970013;28;20338;-71
2022/11/27 10:11:05;;;;;;;9.97;3.93;;;;;;;;;;4961803;28;20183;-72
2022/11/27 10:14:03;;;;;;;9.60;4.50;;;;;;;;;;4972859;28;20658;-72
2022/11/27 10:16:35;;;;;;;9.03;3.80;;;;;;;;;;4942351;28;20211;-71
2022/11/27 10:19:04;;;;;;;6.07;4.30;;;;;;;;;;4974657;28;20180;-72
2022/11/27 10:21:45;;;;;;;8.50;4.67;;;;;;;;;;4974111;28;20678;-72
2022/11/27 10:24:29;;;;;;;9.50;4.80;;;;;;;;;;4973856;28;20188;-72
2022/11/27 10:26:57;;;;;;;7.20;4.03;;;;;;;;;;4973995;28;20177;-72
2022/11/27 10:29:36;;;;;;;10.30;4.77;;;;;;;;;;4965689;28;20180;-72
2022/11/27 10:32:10;;;;;;;6.37;4.40;;;;;;;;;;4979408;28;20242;-71
2022/11/27 10:34:44;;;;;;;6.70;3.53;;;;;;;;;;4956941;28;20207;-72
2022/11/27 10:37:29;;;;;;;8.63;4.70;;;;;;;;;;4978548;28;20188;-72
2022/11/27 10:40:17;;;;;;;6.77;4.40;;;;;;;;;;4951344;28;20247;-72
2022/11/27 10:43:05;;;;;;;7.87;4.60;;;;;;;;;;4964129;28;20224;-72
2022/11/27 10:45:43;;;;;;;8.17;5.13;;;;;;;;;;4973793;28;20176;-72
2022/11/27 10:48:09;;;;;;;5.73;4.30;;;;;;;;;;4982141;28;20176;-72
2022/11/27 10:50:34;;;;;;;7.23;4.50;;;;;;;;;;4971457;28;20187;-72
2022/11/27 10:53:02;;;;;;;7.00;4.07;;;;;;;;;;4973459;28;20195;-72
2022/11/27 10:55:33;;;;;;;9.40;5.30;;;;;;;;;;4978538;28;20234;-71
2022/11/27 10:58:05;;;;;;;8.53;4.33;;;;;;;;;;4965785;28;20203;-72
2022/11/27 11:00:30;;;;;;;13.67;6.30;;;;;;;;;;4974610;28;20181;-73
2022/11/27 11:03:00;;;;;;;7.27;4.50;;;;;;;;;;4970161;28;20582;-72
2022/11/27 11:05:25;;;;;;;9.00;5.13;;;;;;;;;;4974244;28;20724;-72
2022/11/27 11:07:55;;;;;;;6.53;4.20;;;;;;;;;;4971052;28;20183;-72
2022/11/27 11:10:25;;;;;;;6.80;4.57;;;;;;;;;;4966465;28;20191;-72
2022/11/27 11:13:02;;;;;;;6.93;4.60;;;;;;;;;;4970064;28;20691;-72
2022/11/27 11:15:27;;;;;;;6.87;4.27;;;;;;;;;;4972461;28;20184;-71
2022/11/27 11:17:52;;;;;;;7.80;5.17;;;;;;;;;;4983474;28;20223;-72
2022/11/27 11:20:21;;;;;;;11.67;4.77;;;;;;;;;;4967149;28;20243;-72
2022/11/27 11:22:47;;;;;;;6.77;4.07;;;;;;;;;;4976806;28;20560;-72
2022/11/27 11:25:17;;;;;;;9.37;4.67;;;;;;;;;;4974639;28;20195;-73
2022/11/27 11:27:42;;;;;;;6.77;4.20;;;;;;;;;;4957816;28;20267;-72
2022/11/27 11:30:18;;;;;;;6.70;4.77;;;;;;;;;;4977346;28;20259;-72
2022/11/27 11:32:47;;;;;;;8.43;5.27;;;;;;;;;;4977141;28;20689;-72
2022/11/27 11:35:24;;;;;;;9.23;4.50;;;;;;;;;;4979383;28;20643;-71
2022/11/27 11:37:50;;;;;;;8.43;4.73;;;;;;;;;;4977301;28;20270;-72
2022/11/27 11:40:26;;;;;;;7.80;4.57;;;;;;;;;;4976444;28;20267;-71
2022/11/27 11:42:57;;;;;;;9.83;4.33;;;;;;;;;;4971586;28;20298;-72
2022/11/27 11:45:22;;;;;;;8.17;5.03;;;;;;;;;;4978049;28;20658;-72
2022/11/27 11:47:54;;;;;;;7.10;4.40;;;;;;;;;;4977417;28;20246;-71
2022/11/27 11:50:23;;;;;;;9.77;4.97;;;;;;;;;;4974375;28;20698;-72
2022/11/27 11:53:01;;;;;;;10.30;6.33;;;;;;;;;;4973304;28;20713;-71
2022/11/27 11:55:29;;;;;;;10.93;5.17;;;;;;;;;;4977355;28;20198;-71
2022/11/27 11:57:55;;;;;;;9.13;4.77;;;;;;;;;;4977173;28;20184;-72
2022/11/27 12:00:21;;;;;;;7.10;4.00;;;;;;;;;;4986933;28;20180;-73
2022/11/27 12:03:05;;;;;;;8.67;4.83;;;;;;;;;;4980585;28;20208;-73
2022/11/27 12:05:45;;;;;;;9.50;5.30;;;;;;;;;;4991600;28;20259;-72
2022/11/27 12:08:29;;;;;;;6.00;4.40;;;;;;;;;;4988826;28;20235;-72
2022/11/27 12:11:10;;;;;;;6.93;4.63;;;;;;;;;;4984699;28;20268;-72
2022/11/27 12:13:48;;;;;;;5.87;4.43;;;;;;;;;;4971772;28;20267;-73
2022/11/27 12:16:13;;;;;;;7.87;4.07;;;;;;;;;;4991893;28;20180;-73
2022/11/27 12:18:48;;;;;;;7.23;4.40;;;;;;;;;;4991968;28;20171;-72
2022/11/27 12:21:15;;;;;;;7.83;4.43;;;;;;;;;;4963667;28;20208;-72
2022/11/27 12:23:40;;;;;;;7.53;3.80;;;;;;;;;;4987485;28;20204;-72
2022/11/27 12:26:18;;;;;;;8.57;4.23;;;;;;;;;;4982483;28;20195;-72
2022/11/27 12:28:43;;;;;;;6.27;4.00;;;;;;;;;;4975161;28;20178;-71
2022/11/27 12:31:30;;;;;;;8.90;3.77;;;;;;;;;;4987470;28;20191;-72
2022/11/27 12:34:19;;;;;;;8.13;4.40;;;;;;;;;;4983375;28;20231;-71
2022/11/27 12:37:00;;;;;;;8.80;3.67;;;;;;;;;;4982473;28;20319;-72
2022/11/27 12:39:43;;;;;;;7.07;3.87;;;;;;;;;;4986741;28;20192;-72
2022/11/27 12:42:11;;;;;;;6.37;4.17;;;;;;;;;;4960983;28;20208;-72
2022/11/27 12:44:55;;;;;;;5.70;4.20;;;;;;;;;;4959345;28;20180;-72
2022/11/27 12:47:25;;;;;;;6.70;3.97;;;;;;;;;;4979135;28;20176;-72
2022/11/27 12:49:54;;;;;;;5.83;4.10;;;;;;;;;;4975965;28;20287;-72
2022/11/27 12:52:26;;;;;;;6.73;4.10;;;;;;;;;;4976405;28;20683;-72
2022/11/27 12:54:55;;;;;;;10.50;5.73;;;;;;;;;;4966740;28;20278;-71
2022/11/27 12:57:23;;;;;;;9.90;4.60;;;;;;;;;;4983170;28;20177;-72
2022/11/27 12:59:54;;;;;;;5.37;3.90;;;;;;;;;;4978610;28;20188;-72
2022/11/27 13:02:23;;;;;;;7.53;4.93;;;;;;;;;;4973816;28;20211;-71
2022/11/27 13:04:48;;;;;;;6.17;4.30;;;;;;;;;;4976068;28;20183;-72
2022/11/27 13:07:28;;;;;;;10.27;5.10;;;;;;;;;;4982420;28;20267;-71
2022/11/27 13:10:01;;;;;;;6.53;4.53;;;;;;;;;;4974207;28;20198;-71
2022/11/27 13:12:33;;;;;;;7.17;4.30;;;;;;;;;;4974588;28;20200;-71
2022/11/27 13:15:05;;;;;;;6.37;4.63;;;;;;;;;;4975820;28;20193;-72
2022/11/27 13:17:37;;;;;;;9.90;4.50;;;;;;;;;;4978420;28;20198;-72
2022/11/27 13:20:04;;;;;;;8.30;5.17;;;;;;;;;;4981325;28;20538;-72
2022/11/27 13:22:31;;;;;;;6.87;5.13;;;;;;;;;;4980066;28;20212;-71
2022/11/27 13:24:59;;;;;;;8.80;4.80;;;;;;;;;;4966956;28;20183;-72
2022/11/27 13:27:25;;;;;;;8.63;4.03;;;;;;;;;;4975977;28;20550;-72
2022/11/27 13:29:55;;;;;;;9.10;4.33;;;;;;;;;;4981166;28;20347;-71
2022/11/27 13:32:25;;;;;;;6.50;4.43;;;;;;;;;;4977347;28;20310;-71
2022/11/27 13:34:51;;;;;;;6.57;3.77;;;;;;;;;;4973557;28;20192;-72
2022/11/27 13:37:24;;;;;;;6.30;4.43;;;;;;;;;;4978773;28;20263;-71
2022/11/27 13:39:57;;;;;;;5.17;3.60;;;;;;;;;;4979616;28;20645;-71
2022/11/27 13:42:22;;;;;;;7.40;4.07;;;;;;;;;;4980025;28;20271;-71
2022/11/27 13:44:52;;;;;;;6.53;3.73;;;;;;;;;;4980466;28;20167;-71
2022/11/27 13:47:18;;;;;;;6.63;3.80;;;;;;;;;;4980570;28;20188;-72
2022/11/27 13:49:45;;;;;;;5.60;4.97;;;;;;;;;;4965295;28;20187;-72
2022/11/27 13:52:17;;;;;;;5.97;4.00;;;;;;;;;;4973476;28;20618;-72
2022/11/27 13:54:52;;;;;;;10.07;4.57;;;;;;;;;;4964155;28;20740;-72
2022/11/27 13:57:18;;;;;;;5.93;3.70;;;;;;;;;;4982130;28;20189;-72
2022/11/27 13:59:58;;;;;;;7.87;4.53;;;;;;;;;;4983136;28;20230;-72
2022/11/27 14:02:24;;;;;;;9.40;5.13;;;;;;;;;;4986872;28;20200;-72
2022/11/27 14:04:50;;;;;;;8.27;4.77;;;;;;;;;;4978590;28;20188;-72
2022/11/27 14:07:16;;;;;;;9.57;4.53;;;;;;;;;;4974973;28;20267;-72
2022/11/27 14:09:43;;;;;;;7.40;4.87;;;;;;;;;;4980139;28;20168;-72
2022/11/27 14:12:20;;;;;;;10.60;5.90;;;;;;;;;;4979995;28;20234;-72
2022/11/27 14:14:57;;;;;;;9.17;5.27;;;;;;;;;;4980644;28;20188;-72
2022/11/27 14:17:31;;;;;;;6.70;4.30;;;;;;;;;;4983482;28;20270;-72
2022/11/27 14:19:59;;;;;;;7.17;4.97;;;;;;;;;;4976079;28;20186;-72
2022/11/27 14:22:40;;;;;;;7.73;5.33;;;;;;;;;;4980261;28;20308;-72
2022/11/27 14:25:15;;;;;;;7.03;4.93;;;;;;;;;;4975272;28;20633;-72
2022/11/27 14:27:40;;;;;;;8.80;5.80;;;;;;;;;;4977638;28;20261;-72
2022/11/27 14:30:27;;;;;;;9.57;5.10;;;;;;;;;;4977994;28;20180;-72
2022/11/27 14:32:52;;;;;;;7.20;5.77;;;;;;;;;;4976579;28;20275;-72
2022/11/27 14:35:22;;;;;;;7.40;5.07;;;;;;;;;;4966055;28;20287;-72
2022/11/27 14:37:47;;;;;;;7.97;5.47;;;;;;;;;;4985842;28;20183;-72
2022/11/27 14:40:14;;;;;;;6.87;4.43;;;;;;;;;;4975379;28;20243;-72
2022/11/27 14:42:39;;;;;;;11.93;5.63;;;;;;;;;;4983318;28;20299;-72
2022/11/27 14:45:12;;;;;;;9.70;5.43;;;;;;;;;;4974040;28;20944;-72
2022/11/27 14:47:39;;;;;;;8.80;5.13;;;;;;;;;;4984601;28;20708;-72